createdAt,value
2022-10-27T04:02:01.033Z,13.78
2022-10-27T04:07:39.240Z,13.84
2022-10-27T04:10:43.772Z,13.84
2022-10-27T04:13:46.857Z,13.37
2022-10-27T04:16:51.337Z,13.43
2022-10-27T04:19:53.387Z,13.53
2022-10-27T04:22:56.717Z,13.53
2022-10-27T04:25:59.039Z,13.59
2022-10-27T04:29:01.430Z,13.72
2022-10-27T04:32:03.522Z,13.66
2022-10-27T04:35:07.369Z,13.76
2022-10-27T04:38:09.400Z,13.75
2022-10-27T04:41:11.683Z,13.74
2022-10-27T04:44:13.732Z,13.63
2022-10-27T04:47:16.034Z,13.66
2022-10-27T04:50:18.609Z,13.65
2022-10-27T04:53:20.890Z,13.67
2022-10-27T04:56:22.974Z,13.71
2022-10-27T04:59:25.315Z,13.71
2022-10-27T05:02:28.716Z,13.75
2022-10-27T05:05:31.553Z,13.73
2022-10-27T05:08:34.574Z,13.72
2022-10-27T05:11:36.857Z,13.71
2022-10-27T05:14:38.902Z,13.65
2022-10-27T05:17:41.260Z,13.67
2022-10-27T05:20:43.302Z,13.72
2022-10-27T05:23:47.833Z,13.73
2022-10-27T05:26:50.024Z,13.78
2022-10-27T05:29:52.314Z,13.79
2022-10-27T05:32:54.374Z,13.72
2022-10-27T05:35:56.721Z,13.74
2022-10-27T05:38:58.759Z,13.77
2022-10-27T05:42:01.063Z,13.72
2022-10-27T05:45:03.362Z,13.76
2022-10-27T05:48:07.940Z,13.82
2022-10-27T05:51:10.078Z,13.70
2022-10-27T05:54:12.430Z,13.65
2022-10-27T05:57:14.453Z,13.65
2022-10-27T06:00:18.718Z,13.66
2022-10-27T06:03:24.483Z,13.65
2022-10-27T06:06:26.504Z,13.74
2022-10-27T06:09:28.894Z,13.87
2022-10-27T06:12:30.919Z,13.90
2022-10-27T06:15:34.191Z,13.92
2022-10-27T06:18:36.345Z,13.83
2022-10-27T06:21:38.625Z,13.78
2022-10-27T06:24:40.662Z,13.80
2022-10-27T06:27:43.099Z,13.79
2022-10-27T06:30:45.215Z,13.89
2022-10-27T06:33:47.499Z,14.04
2022-10-27T06:36:49.533Z,13.99
2022-10-27T06:39:56.575Z,14.07
2022-10-27T06:43:06.646Z,13.92
2022-10-27T06:46:10.331Z,13.90
2022-10-27T06:49:14.244Z,13.81
2022-10-27T06:52:19.311Z,13.82
2022-10-27T06:55:21.348Z,13.88
2022-10-27T06:58:24.601Z,13.94
2022-10-27T07:01:26.916Z,13.93
2022-10-27T07:04:29.656Z,14.00
2022-10-27T07:07:31.798Z,14.04
2022-10-27T07:10:34.113Z,14.10
2022-10-27T07:13:36.503Z,14.17
2022-10-27T07:16:38.801Z,14.23
2022-10-27T07:19:40.839Z,14.30
2022-10-27T07:22:43.109Z,14.30
2022-10-27T07:25:48.684Z,14.39
2022-10-27T07:28:51.028Z,14.33
2022-10-27T07:31:53.236Z,14.40
2022-10-27T07:34:55.619Z,14.40
2022-10-27T07:37:57.678Z,14.45
2022-10-27T07:41:00.044Z,14.50
2022-10-27T07:44:02.409Z,14.50
2022-10-27T07:47:04.785Z,14.65
2022-10-27T07:50:08.606Z,14.50
2022-10-27T07:53:11.548Z,14.47
2022-10-27T07:56:13.590Z,14.49
2022-10-27T07:59:16.024Z,14.52
2022-10-27T08:02:18.119Z,14.51
2022-10-27T08:05:21.213Z,14.60
2022-10-27T08:08:23.296Z,14.56
2022-10-27T08:11:25.620Z,14.63
2022-10-27T08:14:28.138Z,14.69
2022-10-27T08:17:32.276Z,14.63
2022-10-27T08:20:40.015Z,14.61
2022-10-27T08:23:42.302Z,14.64
2022-10-27T08:26:44.337Z,14.73
2022-10-27T08:29:48.838Z,14.72
2022-10-27T08:32:55.252Z,14.70
2022-10-27T08:36:01.698Z,14.67
2022-10-27T08:39:03.798Z,14.65
2022-10-27T08:42:23.408Z,14.68
2022-10-27T08:45:30.848Z,14.61
2022-10-27T08:48:35.751Z,14.60
2022-10-27T08:51:40.185Z,14.69
2022-10-27T08:54:49.139Z,14.79
2022-10-27T08:58:13.330Z,14.71
2022-10-27T09:01:31.706Z,14.69
2022-10-27T09:05:16.476Z,14.84
2022-10-27T09:08:37.369Z,14.85
2022-10-27T09:11:57.024Z,14.74
2022-10-27T09:15:27.844Z,14.61
2022-10-27T09:19:02.733Z,14.69
2022-10-27T09:22:08.206Z,14.68
2022-10-27T09:25:17.889Z,14.70
2022-10-27T09:28:25.094Z,14.79
2022-10-27T09:31:36.813Z,14.93
2022-10-27T09:34:52.481Z,14.91
2022-10-27T09:37:56.513Z,14.91
2022-10-27T09:40:58.897Z,14.90
2022-10-27T09:44:03.735Z,14.92
2022-10-27T09:47:06.047Z,15.01
2022-10-27T09:50:45.366Z,15.10
2022-10-27T09:53:52.986Z,15.19
2022-10-27T09:56:56.596Z,15.08
2022-10-27T10:00:01.753Z,14.95
2022-10-27T10:03:21.039Z,14.90
2022-10-27T10:06:33.557Z,15.04
2022-10-27T10:09:42.246Z,15.08
2022-10-27T10:12:45.167Z,15.07
2022-10-27T10:15:48.370Z,15.06
2022-10-27T10:19:02.506Z,15.10
2022-10-27T10:22:04.628Z,15.14
2022-10-27T10:25:22.778Z,15.10
2022-10-27T10:28:35.910Z,15.08
2022-10-27T10:31:38.332Z,15.16
2022-10-27T10:34:44.869Z,15.31
2022-10-27T10:37:47.934Z,15.31
2022-10-27T10:41:13.799Z,15.23
2022-10-27T10:44:17.291Z,15.40
2022-10-27T10:47:27.657Z,15.48
2022-10-27T10:50:31.746Z,15.44
2022-10-27T10:53:38.591Z,15.37
2022-10-27T10:56:41.959Z,15.48
2022-10-27T10:59:44.940Z,15.51
2022-10-27T11:03:15.804Z,15.62
2022-10-27T11:06:21.542Z,15.48
2022-10-27T11:09:31.891Z,15.59
2022-10-27T11:12:47.308Z,15.55
2022-10-27T11:15:57.216Z,15.58
2022-10-27T11:19:02.200Z,15.66
2022-10-27T11:22:11.307Z,15.73
2022-10-27T11:25:23.359Z,15.57
2022-10-27T11:28:59.352Z,15.42
2022-10-27T11:32:16.764Z,15.43
2022-10-27T11:35:42.114Z,15.57
2022-10-27T11:39:02.229Z,15.51
2022-10-27T11:42:17.778Z,15.61
2022-10-27T11:45:27.149Z,15.63
2022-10-27T11:48:40.940Z,15.71
2022-10-27T11:51:52.660Z,15.75
2022-10-27T11:54:55.224Z,15.78
2022-10-27T11:58:11.197Z,15.79
2022-10-27T12:01:33.728Z,15.80
2022-10-27T12:04:48.346Z,15.73
2022-10-27T12:08:01.514Z,15.91
2022-10-27T12:11:18.214Z,15.86
2022-10-27T12:14:32.090Z,15.98
2022-10-27T12:17:53.418Z,15.91
2022-10-27T12:20:58.906Z,15.96
2022-10-27T12:24:43.814Z,16.00
2022-10-27T12:27:49.560Z,15.95
2022-10-27T12:30:54.489Z,15.98
2022-10-27T12:34:03.462Z,15.99
2022-10-27T12:37:15.606Z,16.08
2022-10-27T12:40:29.305Z,16.01
2022-10-27T12:43:40.486Z,15.90
2022-10-27T12:46:56.597Z,15.88
2022-10-27T12:50:18.144Z,15.84
2022-10-27T12:53:35.975Z,15.89
2022-10-27T12:56:44.602Z,15.87
2022-10-27T12:59:57.544Z,15.82
2022-10-27T13:03:21.641Z,15.79
2022-10-27T13:06:42.471Z,15.88
2022-10-27T13:10:06.754Z,15.92
2022-10-27T13:13:30.864Z,15.86
2022-10-27T13:16:51.301Z,15.94
2022-10-27T13:20:14.014Z,15.94
2022-10-27T13:23:30.505Z,16.01
2022-10-27T13:26:54.756Z,16.00
2022-10-27T13:30:13.530Z,16.04
2022-10-27T13:33:36.205Z,16.14
2022-10-27T13:36:38.556Z,16.21
2022-10-27T13:39:45.020Z,16.13
2022-10-27T13:42:50.018Z,16.10
2022-10-27T13:45:54.515Z,16.11
2022-10-27T13:48:56.813Z,16.11
2022-10-27T13:52:17.215Z,16.08
2022-10-27T13:55:28.449Z,16.05
2022-10-27T13:58:53.929Z,16.05
2022-10-27T14:02:02.927Z,16.05
2022-10-27T14:05:21.687Z,16.04
2022-10-27T14:08:27.321Z,16.13
2022-10-27T14:11:31.557Z,16.12
2022-10-27T14:14:35.373Z,16.19
2022-10-27T14:17:42.554Z,16.11
2022-10-27T14:20:44.835Z,16.07
2022-10-27T14:23:47.925Z,15.99
2022-10-27T14:26:57.690Z,16.03
2022-10-27T14:30:33.992Z,15.90
2022-10-27T14:33:36.062Z,15.96
2022-10-27T14:36:38.653Z,15.91
2022-10-27T14:39:41.229Z,15.98
2022-10-27T14:42:45.754Z,15.94
2022-10-27T14:45:56.673Z,15.85
2022-10-27T14:49:10.279Z,15.81
2022-10-27T14:52:50.224Z,15.78
2022-10-27T14:56:06.929Z,15.74
2022-10-27T14:59:21.758Z,15.80
2022-10-27T15:02:25.913Z,15.79
2022-10-27T15:05:46.198Z,15.76
2022-10-27T15:08:50.718Z,15.79
2022-10-27T15:11:52.833Z,15.80
2022-10-27T15:14:56.439Z,15.76
2022-10-27T15:18:02.757Z,15.77
2022-10-27T15:21:11.310Z,15.77
2022-10-27T15:24:20.137Z,15.69
2022-10-27T15:27:22.858Z,15.63
2022-10-27T15:30:24.959Z,15.59
2022-10-27T15:33:27.285Z,15.57
2022-10-27T15:36:29.372Z,15.58
2022-10-27T15:39:31.652Z,15.55
2022-10-27T15:42:37.047Z,15.50
2022-10-27T15:45:45.423Z,15.52
2022-10-27T15:49:14.758Z,15.48
2022-10-27T15:52:22.489Z,15.54
